Time;durP1;ratioP1;P1;durP2;ratioP2;P2;SDS_P1;SDS_P2;PMS_P1;PMS_P2;Temp;Humidity;BMP_temperature;BMP_pressure;BME280_temperature;BME280_humidity;BME280_pressure;Samples;Min_cycle;Max_cycle;Signal;HPM_P1;HPM_P2
2021/07/22 00:00:24;;;;;;;11.30;8.10;;;;;;;16.09;76.75;100741.87;1748985;82;20980;-92
2021/07/22 00:02:50;;;;;;;13.62;8.98;;;;;;;16.05;77.16;100745.80;1725311;82;21488;-92
2021/07/22 00:05:18;;;;;;;11.12;8.23;;;;;;;16.02;76.90;100744.24;1767391;81;21001;-93
2021/07/22 00:07:48;;;;;;;20.62;10.53;;;;;;;16.02;77.18;100748.23;1777900;81;21033;-92
2021/07/22 00:10:15;;;;;;;19.67;11.55;;;;;;;15.99;77.29;100743.22;1748946;82;21531;-93
2021/07/22 00:12:42;;;;;;;19.62;12.03;;;;;;;15.97;77.51;100745.65;1748753;82;21551;-92
2021/07/22 00:15:10;;;;;;;17.73;11.35;;;;;;;15.95;77.26;100744.44;1748926;82;21080;-93
2021/07/22 00:17:36;;;;;;;20.15;11.93;;;;;;;15.95;77.32;100746.61;1752978;81;20989;-92
2021/07/22 00:20:05;;;;;;;17.95;10.68;;;;;;;15.95;77.62;100747.10;1779824;81;21026;-91
2021/07/22 00:22:32;;;;;;;18.98;11.15;;;;;;;15.94;77.63;100746.27;1779343;81;21093;-93
2021/07/22 00:24:59;;;;;;;15.20;9.28;;;;;;;15.94;78.03;100749.42;1761519;81;21446;-96
2021/07/22 00:27:25;;;;;;;18.00;9.98;;;;;;;15.91;77.80;100746.53;1748786;82;21494;-96
2021/07/22 00:29:51;;;;;;;14.58;9.33;;;;;;;15.92;78.00;100755.35;1727707;82;21545;-96
2021/07/22 00:32:17;;;;;;;14.13;8.85;;;;;;;15.91;78.08;100751.85;1748988;82;20976;-96
2021/07/22 00:34:43;;;;;;;12.95;8.85;;;;;;;15.90;77.88;100752.00;1748799;82;21489;-96
2021/07/22 00:37:09;;;;;;;12.10;8.85;;;;;;;15.90;78.44;100744.86;1727492;82;21023;-95
2021/07/22 00:39:36;;;;;;;14.98;9.23;;;;;;;15.90;78.50;100752.84;1748877;82;21437;-95
2021/07/22 00:42:05;;;;;;;13.93;9.50;;;;;;;15.89;78.28;100751.17;1748736;82;21125;-95
2021/07/22 00:44:31;;;;;;;17.80;10.50;;;;;;;15.90;78.49;100744.86;1748883;82;20991;-96
2021/07/22 00:46:57;;;;;;;16.40;9.85;;;;;;;15.91;78.70;100749.19;1712803;84;21073;-95
2021/07/22 00:49:23;;;;;;;17.12;10.25;;;;;;;15.90;78.72;100744.86;1748858;82;20991;-96
2021/07/22 00:51:49;;;;;;;14.28;10.13;;;;;;;15.90;78.68;100746.19;1727628;82;21094;-95
2021/07/22 00:54:15;;;;;;;15.88;10.85;;;;;;;15.91;79.02;100738.55;1712970;84;21017;-96
2021/07/22 00:56:41;;;;;;;19.75;11.93;;;;;;;15.91;79.34;100743.88;1748437;82;21109;-95
2021/07/22 00:59:07;;;;;;;19.80;10.70;;;;;;;15.92;79.30;100743.38;1712975;84;21029;-96
2021/07/22 01:01:33;;;;;;;19.60;11.50;;;;;;;15.92;79.50;100744.22;1748897;82;21078;-95
2021/07/22 01:03:59;;;;;;;20.97;11.73;;;;;;;15.92;79.52;100737.56;1692625;84;21028;-95
2021/07/22 01:06:25;;;;;;;23.90;12.78;;;;;;;15.94;79.93;100736.11;1748808;82;21042;-95
2021/07/22 01:08:51;;;;;;;26.62;15.50;;;;;;;15.93;79.95;100742.42;1712920;84;21030;-96
2021/07/22 01:11:17;;;;;;;25.25;15.03;;;;;;;15.94;79.76;100739.61;1748887;82;21002;-94
2021/07/22 01:13:43;;;;;;;23.07;13.48;;;;;;;15.97;79.69;100735.00;1703334;82;21027;-95
2021/07/22 01:16:10;;;;;;;23.42;13.05;;;;;;;15.99;79.49;100735.69;1727478;82;21549;-95
2021/07/22 01:18:36;;;;;;;18.40;11.30;;;;;;;16.00;79.78;100733.41;1712716;84;21033;-95
2021/07/22 01:21:08;;;;;;;18.12;10.93;;;;;;;16.02;79.89;100742.91;1748877;82;21062;-94
2021/07/22 01:23:34;;;;;;;16.02;10.88;;;;;;;16.04;79.86;100736.14;1749535;82;20967;-96
2021/07/22 01:26:00;;;;;;;11.88;9.30;;;;;;;16.07;80.16;100738.03;1749387;82;21478;-96
2021/07/22 01:28:26;;;;;;;10.48;7.72;;;;;;;16.09;80.34;100733.42;1749236;82;20990;-96
2021/07/22 01:30:52;;;;;;;13.32;8.48;;;;;;;16.12;80.55;100738.48;1749646;82;21042;-96
2021/07/22 01:33:18;;;;;;;13.35;8.48;;;;;;;16.16;80.63;100740.38;1749088;82;21076;-96
2021/07/22 01:35:45;;;;;;;8.90;6.78;;;;;;;16.18;80.60;100737.06;1750055;82;20991;-96
2021/07/22 01:38:11;;;;;;;11.18;6.85;;;;;;;16.22;80.54;100733.64;1748828;82;21014;-96
2021/07/22 01:40:37;;;;;;;10.25;7.10;;;;;;;16.25;80.41;100733.36;1749381;82;20987;-96
2021/07/22 01:43:05;;;;;;;8.75;7.00;;;;;;;16.27;80.38;100732.75;1749257;82;21034;-96
2021/07/22 01:45:32;;;;;;;9.33;6.35;;;;;;;16.31;80.38;100732.31;1699612;82;21063;-96
2021/07/22 01:47:58;;;;;;;10.18;7.75;;;;;;;16.34;80.55;100733.38;1748772;82;21474;-96
2021/07/22 01:50:24;;;;;;;9.80;7.22;;;;;;;16.37;80.45;100732.27;1749335;82;20996;-96
2021/07/22 01:52:50;;;;;;;9.15;7.55;;;;;;;16.40;80.47;100733.32;1748785;82;21497;-96
2021/07/22 01:55:17;;;;;;;9.88;7.12;;;;;;;16.43;80.52;100724.22;1749504;82;21046;-96
2021/07/22 01:57:43;;;;;;;8.90;6.30;;;;;;;16.45;80.51;100723.56;1727844;82;21509;-96
2021/07/22 02:00:09;;;;;;;10.70;7.42;;;;;;;16.47;80.51;100721.62;1749277;82;21046;-95
2021/07/22 02:02:35;;;;;;;9.13;6.85;;;;;;;16.49;80.57;100722.33;1748808;82;21014;-96
2021/07/22 02:05:02;;;;;;;9.28;7.35;;;;;;;16.49;80.60;100720.50;1749241;82;21031;-96
2021/07/22 02:07:28;;;;;;;7.42;6.15;;;;;;;16.52;80.47;100728.68;1743628;82;20978;-95
2021/07/22 02:09:54;;;;;;;10.00;7.55;;;;;;;16.53;80.48;100725.89;1742398;82;21022;-96
2021/07/22 02:12:20;;;;;;;9.38;6.62;;;;;;;16.55;80.50;100725.27;1742318;82;20963;-96
2021/07/22 02:14:50;;;;;;;8.43;6.03;;;;;;;16.57;80.40;100728.63;1744332;81;21536;-94
2021/07/22 02:17:15;;;;;;;10.30;7.08;;;;;;;16.58;80.42;100725.45;1764157;81;21026;-95
2021/07/22 02:19:41;;;;;;;8.05;6.90;;;;;;;16.59;80.47;100727.16;1764620;81;21441;-94
2021/07/22 02:22:07;;;;;;;11.15;7.40;;;;;;;16.62;80.49;100726.39;1764464;81;20983;-96
2021/07/22 02:24:33;;;;;;;9.63;6.83;;;;;;;16.63;80.45;100723.23;1764541;81;21484;-96
2021/07/22 02:27:01;;;;;;;9.65;6.75;;;;;;;16.65;80.42;100726.61;1764467;81;21069;-94
2021/07/22 02:29:27;;;;;;;9.43;6.65;;;;;;;16.65;80.49;100720.78;1745176;81;21050;-96
2021/07/22 02:31:54;;;;;;;10.63;6.97;;;;;;;16.65;80.49;100719.95;1744961;81;21508;-96
2021/07/22 02:34:20;;;;;;;10.70;7.83;;;;;;;16.67;80.51;100725.95;1745268;81;20990;-95
2021/07/22 02:36:46;;;;;;;11.20;7.15;;;;;;;16.68;80.59;100726.79;1764385;81;21449;-96
2021/07/22 02:39:12;;;;;;;12.10;7.37;;;;;;;16.69;80.53;100724.50;1745240;81;20994;-96
2021/07/22 02:41:38;;;;;;;9.93;8.33;;;;;;;16.71;80.50;100725.18;1764446;81;21056;-96
2021/07/22 02:44:05;;;;;;;9.20;7.42;;;;;;;16.72;80.50;100726.88;1764420;81;21010;-96
2021/07/22 02:46:31;;;;;;;10.10;7.08;;;;;;;16.72;80.47;100728.22;1764106;81;21014;-96
2021/07/22 02:48:57;;;;;;;10.18;6.15;;;;;;;16.73;80.52;100731.22;1745077;81;20951;-96
2021/07/22 02:51:23;;;;;;;10.32;6.83;;;;;;;16.75;80.54;100738.13;1745096;81;21563;-96
2021/07/22 02:53:49;;;;;;;8.83;6.20;;;;;;;16.75;80.50;100741.26;1744872;81;20991;-95
2021/07/22 02:56:16;;;;;;;9.25;6.33;;;;;;;16.76;80.49;100738.97;1745071;81;21461;-95
2021/07/22 02:58:42;;;;;;;8.90;6.12;;;;;;;16.77;80.50;100737.48;1764469;81;21049;-95
2021/07/22 03:01:11;;;;;;;10.23;7.22;;;;;;;16.77;80.55;100740.64;1745082;81;21045;-95
2021/07/22 03:03:37;;;;;;;8.25;6.30;;;;;;;16.79;80.60;100746.68;1763991;81;21038;-94
2021/07/22 03:06:04;;;;;;;8.55;6.97;;;;;;;16.80;80.72;100742.53;1764060;81;21065;-96
2021/07/22 03:08:30;;;;;;;9.40;7.10;;;;;;;16.80;80.83;100744.36;1764016;81;21057;-96
2021/07/22 03:10:56;;;;;;;10.90;7.22;;;;;;;16.79;80.96;100738.19;1764353;81;21045;-96
2021/07/22 03:13:22;;;;;;;8.80;6.37;;;;;;;16.80;80.85;100735.86;1764004;81;21054;-96
2021/07/22 03:15:48;;;;;;;10.72;6.85;;;;;;;16.79;80.70;100737.35;1744774;81;21070;-96
2021/07/22 03:18:14;;;;;;;8.43;6.75;;;;;;;16.80;80.59;100741.69;1764156;81;21060;-95
2021/07/22 03:20:40;;;;;;;8.80;6.87;;;;;;;16.81;80.52;100739.36;1764210;81;20998;-96
2021/07/22 03:23:06;;;;;;;9.68;6.10;;;;;;;16.82;80.70;100738.41;1744778;81;21053;-96
2021/07/22 03:25:33;;;;;;;11.12;7.47;;;;;;;16.84;80.98;100746.59;1764042;81;21084;-96
2021/07/22 03:28:04;;;;;;;7.83;6.50;;;;;;;16.84;81.12;100741.25;1763871;81;21089;-96
2021/07/22 03:30:30;;;;;;;10.87;6.87;;;;;;;16.83;81.02;100742.25;1764337;81;20999;-96
2021/07/22 03:32:56;;;;;;;8.25;6.75;;;;;;;16.83;81.03;100746.24;1744812;81;20999;-96
2021/07/22 03:35:22;;;;;;;12.10;7.97;;;;;;;16.82;81.10;100741.91;1744750;81;21498;-95
2021/07/22 03:37:49;;;;;;;11.05;6.80;;;;;;;16.74;81.44;100734.22;1764103;81;21030;-96
2021/07/22 03:40:15;;;;;;;13.00;6.83;;;;;;;16.81;81.57;100748.69;1764014;81;21853;-96
2021/07/22 03:42:41;;;;;;;9.20;7.03;;;;;;;16.79;81.71;100751.52;1764078;81;20993;-95
2021/07/22 03:45:08;;;;;;;13.35;7.03;;;;;;;16.79;81.75;100748.02;1764132;81;20998;-96
2021/07/22 03:47:35;;;;;;;11.40;6.87;;;;;;;16.78;81.75;100745.84;1744475;81;21069;-96
2021/07/22 03:50:02;;;;;;;9.28;6.67;;;;;;;16.77;81.85;100756.13;1764113;81;21002;-96
2021/07/22 03:52:28;;;;;;;7.80;6.00;;;;;;;16.77;82.01;100751.30;1763822;81;21488;-96
2021/07/22 03:54:54;;;;;;;11.18;7.50;;;;;;;16.78;82.17;100749.84;1764163;81;21057;-96
2021/07/22 03:57:20;;;;;;;9.60;7.25;;;;;;;16.79;82.18;100750.18;1764207;81;21781;-96
2021/07/22 03:59:46;;;;;;;11.08;7.60;;;;;;;16.80;81.82;100753.69;1744832;81;21053;-96
2021/07/22 04:02:12;;;;;;;12.65;7.22;;;;;;;16.81;82.12;100754.02;1764092;81;21057;-96
2021/07/22 04:04:38;;;;;;;9.75;6.62;;;;;;;16.81;82.38;100752.23;1764272;81;21070;-96
2021/07/22 04:07:05;;;;;;;9.15;7.15;;;;;;;16.81;82.38;100749.56;1744501;81;21034;-96
2021/07/22 04:09:31;;;;;;;8.88;7.35;;;;;;;16.82;82.28;100751.23;1764135;81;21472;-96
2021/07/22 04:11:57;;;;;;;15.58;7.97;;;;;;;16.82;82.44;100754.39;1764005;81;21018;-96
2021/07/22 04:14:23;;;;;;;10.43;6.75;;;;;;;16.81;82.32;100748.23;1764082;81;21042;-96
2021/07/22 04:16:49;;;;;;;10.60;7.22;;;;;;;16.82;82.37;100748.56;1764024;81;21061;-96
2021/07/22 04:19:15;;;;;;;12.13;8.65;;;;;;;16.82;82.29;100751.23;1744823;81;21074;-96
2021/07/22 04:21:41;;;;;;;9.98;7.37;;;;;;;16.81;82.50;100749.56;1744612;81;21484;-96
2021/07/22 04:24:08;;;;;;;13.58;8.38;;;;;;;16.82;82.31;100752.56;1764062;81;21071;-95
2021/07/22 04:26:34;;;;;;;11.15;7.25;;;;;;;16.83;82.70;100751.58;1764065;81;21062;-96
2021/07/22 04:29:00;;;;;;;12.03;7.22;;;;;;;16.83;82.90;100747.58;1764006;81;21571;-95
2021/07/22 04:31:26;;;;;;;14.33;8.83;;;;;;;16.85;82.67;100751.45;1764063;81;21053;-96
2021/07/22 04:33:52;;;;;;;13.75;8.30;;;;;;;16.85;82.56;100751.45;1744583;81;21050;-95
2021/07/22 04:36:18;;;;;;;11.48;8.13;;;;;;;16.88;83.04;100754.67;1744900;81;21018;-95
2021/07/22 04:38:44;;;;;;;13.55;9.08;;;;;;;16.88;82.75;100748.01;1744458;81;21532;-96
2021/07/22 04:41:10;;;;;;;11.48;6.70;;;;;;;16.88;82.75;100743.17;1764342;81;21017;-96
2021/07/22 04:43:36;;;;;;;11.73;8.00;;;;;;;16.91;82.76;100744.19;1764053;81;21504;-95
2021/07/22 04:46:04;;;;;;;11.57;7.20;;;;;;;16.92;83.00;100744.56;1764149;81;20998;-95
2021/07/22 04:48:31;;;;;;;11.53;7.25;;;;;;;16.94;83.68;100739.91;1737200;81;21066;-95
2021/07/22 04:51:00;;;;;;;11.83;7.33;;;;;;;16.96;83.35;100741.95;1763976;81;21001;-95
2021/07/22 04:53:26;;;;;;;10.95;7.92;;;;;;;16.99;83.28;100740.84;1763739;81;21002;-95
2021/07/22 04:55:52;;;;;;;9.98;7.45;;;;;;;17.00;83.19;100742.02;1744799;81;21461;-95
2021/07/22 04:58:18;;;;;;;11.70;7.50;;;;;;;17.01;83.35;100746.38;1744390;81;21457;-85
2021/07/22 05:00:44;;;;;;;10.55;7.50;;;;;;;17.04;83.14;100746.06;1763678;81;21026;-85
2021/07/22 05:03:10;;;;;;;14.95;7.62;;;;;;;17.06;82.88;100740.61;1763644;81;21137;-85
2021/07/22 05:05:36;;;;;;;15.20;7.35;;;;;;;17.06;82.76;100748.11;1763829;81;21081;-85
2021/07/22 05:08:03;;;;;;;12.28;8.43;;;;;;;17.08;82.74;100747.98;1778655;81;21064;-85
2021/07/22 05:10:31;;;;;;;11.25;7.95;;;;;;;17.08;83.34;100748.81;1778748;80;21078;-85
2021/07/22 05:13:00;;;;;;;11.12;8.00;;;;;;;17.11;83.15;100751.70;1778377;80;21049;-85
2021/07/22 05:15:27;;;;;;;10.95;7.37;;;;;;;17.11;83.15;100746.37;1777911;81;21567;-85
2021/07/22 05:17:53;;;;;;;15.43;8.55;;;;;;;17.14;82.99;100747.38;1778776;81;21058;-85
2021/07/22 05:20:20;;;;;;;16.05;7.60;;;;;;;17.17;82.92;100754.27;1778922;80;21088;-85
2021/07/22 05:22:46;;;;;;;15.72;7.67;;;;;;;17.20;82.72;100751.31;1778697;81;21048;-85
2021/07/22 05:25:12;;;;;;;12.53;7.53;;;;;;;17.20;82.91;100754.81;1778873;81;21068;-85
2021/07/22 05:27:38;;;;;;;13.95;7.08;;;;;;;17.22;82.88;100756.02;1778702;81;20993;-85
2021/07/22 05:30:05;;;;;;;15.58;8.60;;;;;;;17.24;82.72;100751.36;1779054;81;21033;-85
2021/07/22 05:32:32;;;;;;;14.43;8.03;;;;;;;17.26;82.78;100752.07;1778750;81;21524;-85
2021/07/22 05:34:58;;;;;;;11.22;7.33;;;;;;;17.27;82.95;100754.58;1778777;80;21096;-85
2021/07/22 05:37:24;;;;;;;16.67;8.23;;;;;;;17.28;83.00;100758.95;1778700;81;21028;-85
2021/07/22 05:39:49;;;;;;;12.03;7.67;;;;;;;17.27;82.77;100753.25;1779010;81;21072;-85
2021/07/22 05:42:15;;;;;;;23.27;8.13;;;;;;;17.30;83.24;100749.45;1778687;81;21678;-84
2021/07/22 05:44:42;;;;;;;18.52;7.75;;;;;;;17.33;83.10;100751.84;1778751;81;21013;-85
2021/07/22 05:47:08;;;;;;;18.15;8.10;;;;;;;17.33;83.07;100760.67;1778490;81;21115;-85
2021/07/22 05:49:34;;;;;;;11.78;7.85;;;;;;;17.35;83.12;100763.22;1779002;81;21525;-85
2021/07/22 05:52:00;;;;;;;14.10;7.53;;;;;;;17.37;83.08;100760.39;1778732;81;21029;-85
2021/07/22 05:54:27;;;;;;;17.77;7.65;;;;;;;17.39;83.22;100764.59;1778895;81;21021;-85
2021/07/22 05:56:53;;;;;;;16.12;7.70;;;;;;;17.41;83.20;100761.80;1778538;81;21123;-85
2021/07/22 05:59:19;;;;;;;14.78;8.45;;;;;;;17.42;83.51;100760.81;1778740;81;21014;-85
2021/07/22 06:01:45;;;;;;;15.03;8.75;;;;;;;17.44;83.97;100765.48;1778803;81;21555;-85
2021/07/22 06:04:10;;;;;;;13.13;8.83;;;;;;;17.45;83.89;100764.02;1778862;81;21017;-85
2021/07/22 06:06:37;;;;;;;12.58;7.97;;;;;;;17.46;83.60;100764.36;1778750;81;21048;-85
2021/07/22 06:09:03;;;;;;;13.65;8.00;;;;;;;17.48;84.02;100761.56;1778707;81;21079;-84
2021/07/22 06:11:30;;;;;;;13.93;7.80;;;;;;;17.50;83.87;100763.58;1779240;81;21528;-85
2021/07/22 06:13:56;;;;;;;16.80;8.40;;;;;;;17.52;83.43;100764.28;1778933;81;21009;-85
2021/07/22 06:16:22;;;;;;;14.83;8.68;;;;;;;17.54;83.46;100763.16;1779022;80;20965;-85
2021/07/22 06:18:48;;;;;;;16.07;9.25;;;;;;;17.56;83.31;100762.50;1778776;81;21029;-85
2021/07/22 06:21:16;;;;;;;13.40;8.35;;;;;;;17.59;83.14;100760.88;1778066;81;20958;-86
2021/07/22 06:23:44;;;;;;;15.80;9.50;;;;;;;17.61;82.98;100762.58;1776505;81;21013;-85
2021/07/22 06:26:10;;;;;;;15.25;8.75;;;;;;;17.64;83.12;100771.12;1778544;81;21499;-84
2021/07/22 06:28:36;;;;;;;14.60;9.95;;;;;;;17.65;82.98;100768.80;1776488;80;20996;-84
2021/07/22 06:31:03;;;;;;;12.10;8.85;;;;;;;17.66;82.73;100765.63;1751365;81;21592;-85
2021/07/22 06:33:28;;;;;;;13.08;8.35;;;;;;;17.67;82.64;100768.64;1727005;82;21021;-85
2021/07/22 06:35:54;;;;;;;13.93;9.40;;;;;;;17.68;82.62;100766.34;1753632;81;21009;-85
2021/07/22 06:38:20;;;;;;;12.98;9.25;;;;;;;17.70;82.65;100766.55;1767947;81;21478;-83
2021/07/22 06:40:47;;;;;;;13.98;8.60;;;;;;;17.72;82.57;100763.72;1779027;81;21022;-84
2021/07/22 06:43:13;;;;;;;15.13;8.53;;;;;;;17.74;82.51;100763.92;1777596;81;21472;-84
2021/07/22 06:45:42;;;;;;;14.35;8.20;;;;;;;17.76;82.48;100761.95;1748890;81;21280;-83
2021/07/22 06:48:09;;;;;;;12.55;8.30;;;;;;;17.78;82.39;100762.66;1744302;80;21005;-84
2021/07/22 06:50:36;;;;;;;16.40;9.45;;;;;;;17.81;82.35;100762.37;1763301;81;20957;-84
2021/07/22 06:53:04;;;;;;;17.92;8.88;;;;;;;17.83;82.41;100752.86;1767741;81;21025;-84
2021/07/22 06:55:34;;;;;;;12.53;9.48;;;;;;;17.85;82.30;100759.41;1770082;80;21028;-84
2021/07/22 06:58:08;;;;;;;16.40;8.98;;;;;;;17.88;82.28;100762.62;1748724;81;20994;-83
2021/07/22 07:00:35;;;;;;;12.82;9.10;;;;;;;17.91;82.16;100762.33;1773854;81;21475;-82
2021/07/22 07:03:04;;;;;;;10.85;7.60;;;;;;;17.91;81.67;100762.83;1772364;81;20954;-83
2021/07/22 07:05:31;;;;;;;13.60;7.95;;;;;;;17.92;81.93;100761.33;1747709;82;21013;-82
2021/07/22 07:07:57;;;;;;;14.83;8.35;;;;;;;17.95;82.10;100768.20;1748305;82;20998;-83
2021/07/22 07:10:24;;;;;;;16.85;9.48;;;;;;;17.99;81.66;100766.91;1748336;82;21038;-83
2021/07/22 07:12:51;;;;;;;14.23;8.38;;;;;;;18.02;81.84;100766.62;1748390;82;21003;-88
2021/07/22 07:15:18;;;;;;;12.28;9.45;;;;;;;18.06;81.75;100763.98;1747947;82;21085;-83
2021/07/22 07:17:45;;;;;;;9.68;7.40;;;;;;;18.08;81.82;100759.84;1748154;82;21003;-83
2021/07/22 07:20:11;;;;;;;14.33;8.48;;;;;;;18.13;82.20;100765.56;1748343;82;21005;-82
2021/07/22 07:22:37;;;;;;;10.53;7.47;;;;;;;18.17;81.98;100759.80;1748191;82;21543;-82
2021/07/22 07:25:04;;;;;;;11.93;7.70;;;;;;;18.10;81.24;100746.70;1752482;80;20985;-83
2021/07/22 07:27:30;;;;;;;9.93;7.78;;;;;;;18.23;81.48;100753.85;1765277;81;21045;-83
2021/07/22 07:29:55;;;;;;;11.28;8.30;;;;;;;18.23;81.48;100753.85;1748531;82;20946;-83
2021/07/22 07:32:21;;;;;;;11.80;8.63;;;;;;;18.25;81.70;100750.52;1748293;82;20978;-83
2021/07/22 07:34:47;;;;;;;15.93;9.33;;;;;;;18.31;81.66;100756.27;1748286;82;21048;-83
2021/07/22 07:37:13;;;;;;;13.85;8.10;;;;;;;18.35;81.76;100749.62;1748188;82;21511;-83
2021/07/22 07:39:39;;;;;;;12.63;8.13;;;;;;;18.38;81.71;100751.48;1748399;82;21432;-83
2021/07/22 07:42:05;;;;;;;15.53;8.83;;;;;;;18.42;81.48;100750.19;1748335;82;21048;-83
2021/07/22 07:44:31;;;;;;;11.60;7.85;;;;;;;18.45;81.40;100744.54;1748520;82;20989;-83
2021/07/22 07:46:57;;;;;;;14.90;8.68;;;;;;;18.49;81.54;100752.63;1748277;82;20997;-83
2021/07/22 07:49:23;;;;;;;18.60;10.85;;;;;;;18.53;81.16;100752.31;1748386;82;21522;-83
2021/07/22 07:51:49;;;;;;;15.00;8.43;;;;;;;18.56;81.42;100751.52;1748325;82;21043;-83
2021/07/22 07:54:22;;;;;;;16.20;7.72;;;;;;;18.60;81.40;100754.21;1748577;82;21471;-83
2021/07/22 07:56:49;;;;;;;15.28;9.48;;;;;;;18.64;81.09;100759.59;1747435;82;21123;-84
2021/07/22 07:59:17;;;;;;;15.15;8.68;;;;;;;18.67;81.01;100751.77;1748405;82;21061;-84
2021/07/22 08:01:43;;;;;;;16.62;8.68;;;;;;;18.72;81.16;100748.16;1748139;82;20985;-84
2021/07/22 08:04:09;;;;;;;17.35;9.40;;;;;;;18.72;81.16;100748.16;1748617;82;21004;-83
2021/07/22 08:06:35;;;;;;;15.38;8.13;;;;;;;18.76;81.23;100748.21;1748208;82;21017;-83
2021/07/22 08:09:01;;;;;;;12.53;7.95;;;;;;;18.72;80.36;100732.98;1748297;82;21487;-83
2021/07/22 08:11:27;;;;;;;12.85;7.35;;;;;;;18.83;79.91;100748.43;1748177;82;21029;-84
2021/07/22 08:13:53;;;;;;;13.15;7.67;;;;;;;18.86;80.26;100746.79;1748342;82;21020;-83
2021/07/22 08:16:19;;;;;;;10.98;7.03;;;;;;;18.91;80.60;100759.18;1748292;82;21547;-83
2021/07/22 08:18:46;;;;;;;9.23;7.58;;;;;;;18.96;80.07;100753.72;1748146;82;21516;-83
2021/07/22 08:21:13;;;;;;;12.73;7.25;;;;;;;19.01;79.78;100756.41;1727006;82;21024;-84
2021/07/22 08:23:40;;;;;;;9.70;6.15;;;;;;;19.05;79.44;100758.64;1748270;82;21049;-83
2021/07/22 08:26:06;;;;;;;9.08;6.05;;;;;;;19.09;79.39;100757.83;1748442;82;21028;-84
2021/07/22 08:28:33;;;;;;;8.48;6.87;;;;;;;19.12;79.11;100753.00;1748225;82;20974;-84
2021/07/22 08:31:00;;;;;;;10.53;6.33;;;;;;;19.15;79.39;100754.50;1748274;82;21013;-84
2021/07/22 08:33:26;;;;;;;7.17;5.42;;;;;;;19.21;79.55;100753.88;1748091;82;20961;-84
2021/07/22 08:35:52;;;;;;;13.43;7.47;;;;;;;19.24;79.25;100752.73;1748333;82;21013;-83
2021/07/22 08:38:18;;;;;;;9.58;6.28;;;;;;;19.28;79.26;100748.73;1748277;82;21483;-83
2021/07/22 08:40:44;;;;;;;11.12;6.90;;;;;;;19.33;78.69;100751.80;1748252;82;21020;-83
2021/07/22 08:43:10;;;;;;;11.55;6.50;;;;;;;19.37;78.34;100752.64;1748243;82;20990;-84
2021/07/22 08:45:36;;;;;;;10.82;6.47;;;;;;;19.41;78.15;100750.02;1748331;82;21463;-83
2021/07/22 08:48:02;;;;;;;10.40;5.95;;;;;;;19.44;78.23;100740.81;1748327;82;21009;-84
2021/07/22 08:50:29;;;;;;;9.05;6.03;;;;;;;19.48;78.04;100746.20;1748412;82;20985;-84
2021/07/22 08:52:56;;;;;;;9.83;6.60;;;;;;;19.52;77.82;100744.88;1748091;82;20993;-83
2021/07/22 08:55:22;;;;;;;8.03;6.15;;;;;;;19.54;78.49;100733.50;1748364;82;21021;-84
2021/07/22 08:57:49;;;;;;;8.18;5.95;;;;;;;19.61;78.43;100739.05;1748195;82;21516;-83
2021/07/22 09:00:17;;;;;;;8.53;6.42;;;;;;;19.64;77.91;100746.33;1748383;82;20993;-84
2021/07/22 09:02:43;;;;;;;9.63;6.62;;;;;;;19.68;77.88;100742.32;1748009;82;21053;-84
2021/07/22 09:05:10;;;;;;;9.28;6.37;;;;;;;19.72;77.87;100740.66;1748263;82;21008;-84
2021/07/22 09:07:36;;;;;;;7.33;5.55;;;;;;;19.75;77.11;100734.98;1747952;82;21488;-84
2021/07/22 09:10:10;;;;;;;8.15;5.62;;;;;;;19.78;77.41;100735.50;1748085;82;21042;-84
2021/07/22 09:12:44;;;;;;;9.58;6.47;;;;;;;19.84;77.54;100740.22;1748017;82;21103;-84
2021/07/22 09:15:27;;;;;;;11.83;6.47;;;;;;;19.90;77.90;100740.88;1746794;82;21065;-84
2021/07/22 09:17:54;;;;;;;14.40;6.70;;;;;;;19.95;77.09;100743.09;1748399;82;21001;-84
2021/07/22 09:20:33;;;;;;;18.40;6.60;;;;;;;20.01;77.31;100736.26;1748354;82;21096;-84
2021/07/22 09:23:02;;;;;;;12.45;7.00;;;;;;;20.05;77.42;100736.27;1745990;82;20974;-84
2021/07/22 09:25:45;;;;;;;11.83;7.22;;;;;;;20.10;76.51;100738.80;1748151;82;21048;-84
2021/07/22 09:28:19;;;;;;;9.93;6.42;;;;;;;20.14;77.01;100740.65;1748235;82;21502;-84
2021/07/22 09:31:02;;;;;;;12.25;7.10;;;;;;;20.18;76.34;100734.45;1746759;82;21049;-84
2021/07/22 09:33:44;;;;;;;11.12;6.10;;;;;;;20.19;76.38;100738.80;1748141;82;20997;-84
2021/07/22 09:36:30;;;;;;;11.30;5.67;;;;;;;20.24;76.52;100737.32;1748201;82;21020;-84
2021/07/22 09:39:30;;;;;;;9.63;5.78;;;;;;;20.33;77.30;100736.31;1748135;82;21009;-84
2021/07/22 09:42:06;;;;;;;8.98;5.85;;;;;;;20.38;74.69;100731.81;1747846;81;21681;-84
2021/07/22 09:44:35;;;;;;;9.93;5.03;;;;;;;20.42;75.21;100732.31;1748403;82;21469;-83
2021/07/22 09:47:05;;;;;;;7.28;4.75;;;;;;;20.48;74.94;100728.98;1747861;81;20958;-84
2021/07/22 09:49:36;;;;;;;7.25;5.30;;;;;;;20.51;74.92;100730.85;1750866;80;21013;-83
2021/07/22 09:52:04;;;;;;;8.18;5.53;;;;;;;20.55;74.06;100728.67;1748290;82;21520;-84
2021/07/22 09:54:36;;;;;;;8.40;5.28;;;;;;;20.60;74.65;100728.52;1748419;82;21037;-83
2021/07/22 09:57:07;;;;;;;6.95;5.55;;;;;;;20.67;74.10;100723.84;1748323;81;21469;-84
2021/07/22 09:59:33;;;;;;;8.08;5.55;;;;;;;20.72;74.04;100729.52;1747006;81;21468;-84
2021/07/22 10:02:04;;;;;;;8.10;5.50;;;;;;;20.78;73.68;100734.22;1748367;81;21013;-83
2021/07/22 10:04:31;;;;;;;8.03;5.85;;;;;;;20.83;73.61;100722.50;1748525;81;21509;-83
2021/07/22 10:07:00;;;;;;;10.40;6.75;;;;;;;20.89;73.60;100721.80;1748098;81;21066;-83
2021/07/22 10:09:32;;;;;;;9.08;5.83;;;;;;;20.98;73.67;100722.63;1748275;82;21027;-84
2021/07/22 10:11:58;;;;;;;8.83;6.33;;;;;;;21.10;74.36;100721.28;1748199;82;20975;-83
2021/07/22 10:14:24;;;;;;;8.35;5.95;;;;;;;21.20;74.16;100722.44;1748375;82;21046;-84
2021/07/22 10:16:51;;;;;;;9.08;5.60;;;;;;;21.28;74.18;100719.73;1748181;82;21003;-84
2021/07/22 10:19:20;;;;;;;11.30;5.33;;;;;;;21.34;72.81;100715.02;1748399;82;21474;-83
2021/07/22 10:21:47;;;;;;;11.12;5.87;;;;;;;21.42;72.49;100715.05;1726939;82;21560;-83
2021/07/22 10:24:13;;;;;;;11.12;5.92;;;;;;;21.54;73.57;100709.61;1748504;82;21006;-83
2021/07/22 10:26:40;;;;;;;13.28;6.62;;;;;;;21.73;72.86;100715.59;1748034;82;21086;-83
2021/07/22 10:29:07;;;;;;;6.65;4.58;;;;;;;21.88;73.16;100712.98;1747910;82;21496;-84
2021/07/22 10:31:43;;;;;;;9.40;5.45;;;;;;;22.04;72.18;100712.06;1748429;81;21527;-87
2021/07/22 10:34:15;;;;;;;4.70;3.67;;;;;;;22.18;71.16;100712.70;1748502;82;21559;-83
2021/07/22 10:36:44;;;;;;;6.75;4.10;;;;;;;22.29;70.00;100710.94;1750155;81;21519;-82
2021/07/22 10:39:10;;;;;;;5.80;3.95;;;;;;;22.31;69.38;100715.64;1748589;82;21005;-87
2021/07/22 10:41:41;;;;;;;6.30;4.42;;;;;;;22.35;68.40;100714.77;1752784;81;20934;-84
2021/07/22 10:44:24;;;;;;;7.22;5.10;;;;;;;22.38;68.38;100711.73;1764652;81;21023;-82
2021/07/22 10:46:59;;;;;;;6.05;4.50;;;;;;;22.42;68.36;100711.19;1748332;82;21688;-83
2021/07/22 10:49:41;;;;;;;7.12;4.90;;;;;;;22.51;69.10;100712.45;1748453;82;21002;-83
2021/07/22 10:52:10;;;;;;;8.75;5.17;;;;;;;22.58;68.84;100700.81;1748522;82;21019;-84
2021/07/22 10:54:48;;;;;;;6.58;4.72;;;;;;;22.69;68.11;100704.41;1749025;80;21489;-83
2021/07/22 10:57:37;;;;;;;5.92;5.05;;;;;;;22.76;67.74;100697.79;1747922;82;21068;-84
2021/07/22 11:00:07;;;;;;;7.67;4.45;;;;;;;22.82;68.10;100695.72;1748474;82;21380;-84
2021/07/22 11:02:46;;;;;;;6.12;5.00;;;;;;;22.90;67.70;100701.05;1748246;82;20993;-84
2021/07/22 11:05:26;;;;;;;7.97;4.80;;;;;;;22.94;67.07;100702.38;1748577;82;21044;-84
2021/07/22 11:08:22;;;;;;;5.85;4.62;;;;;;;23.01;66.91;100696.27;1747473;82;21036;-83
2021/07/22 11:11:02;;;;;;;5.72;4.33;;;;;;;23.03;66.16;100696.38;1748576;81;20982;-84
2021/07/22 11:13:41;;;;;;;6.00;4.87;;;;;;;23.08;67.31;100693.16;1762830;81;20966;-84
2021/07/22 11:16:31;;;;;;;8.08;4.90;;;;;;;23.10;66.05;100688.41;1779242;81;21075;-85
2021/07/22 11:19:04;;;;;;;7.00;4.60;;;;;;;23.09;64.58;100686.23;1748239;82;21111;-86
2021/07/22 11:21:37;;;;;;;5.60;4.22;;;;;;;23.03;64.73;100686.96;1746726;82;21013;-86